createdAt,value
2019-02-17T00:00:03.399Z,5.00
2019-02-17T00:02:30.485Z,4.87
2019-02-17T00:04:57.736Z,6.70
2019-02-17T00:07:24.812Z,4.33
2019-02-17T00:09:51.955Z,4.80
2019-02-17T00:12:19.043Z,5.00
2019-02-17T00:14:46.109Z,4.20
2019-02-17T00:17:13.656Z,4.10
2019-02-17T00:19:40.738Z,4.20
2019-02-17T00:22:07.815Z,3.43
2019-02-17T00:24:35.082Z,10.03
2019-02-17T00:27:02.383Z,3.83
2019-02-17T00:29:30.567Z,5.77
2019-02-17T00:31:57.625Z,5.10
2019-02-17T00:34:24.899Z,7.30
2019-02-17T00:36:52.007Z,4.50
2019-02-17T00:39:19.110Z,4.00
2019-02-17T00:41:46.165Z,4.57
2019-02-17T00:44:13.530Z,4.47
2019-02-17T00:46:40.588Z,4.83
2019-02-17T00:49:08.001Z,3.97
2019-02-17T00:51:35.593Z,4.27
2019-02-17T00:54:02.622Z,5.20
2019-02-17T00:56:29.715Z,4.63
2019-02-17T00:58:56.786Z,5.73
2019-02-17T01:01:23.905Z,5.10
2019-02-17T01:03:51.125Z,4.57
2019-02-17T01:06:18.186Z,5.00
2019-02-17T01:08:45.271Z,4.73
2019-02-17T01:11:12.369Z,4.90
2019-02-17T01:13:39.437Z,4.80
2019-02-17T01:16:06.568Z,4.73
2019-02-17T01:18:33.666Z,4.10
2019-02-17T01:21:00.721Z,5.10
2019-02-17T01:23:27.782Z,5.23
2019-02-17T01:25:54.944Z,5.17
2019-02-17T01:28:22.050Z,4.63
2019-02-17T01:30:49.107Z,6.40
2019-02-17T01:33:16.195Z,5.10
2019-02-17T01:35:43.308Z,4.73
2019-02-17T01:38:10.374Z,4.60
2019-02-17T01:40:37.433Z,4.90
2019-02-17T01:43:04.559Z,4.80
2019-02-17T01:45:31.617Z,5.37
2019-02-17T01:48:01.200Z,5.03
2019-02-17T01:50:27.553Z,5.60
2019-02-17T01:52:54.632Z,5.13
2019-02-17T01:55:21.687Z,6.00
2019-02-17T01:57:48.785Z,5.50
2019-02-17T02:00:15.865Z,5.93
2019-02-17T02:02:42.907Z,5.23
2019-02-17T02:05:10.170Z,6.80
2019-02-17T02:07:37.238Z,6.73
2019-02-17T02:10:04.319Z,7.10
2019-02-17T02:12:31.413Z,5.10
2019-02-17T02:14:58.467Z,5.47
2019-02-17T02:17:25.516Z,5.23
2019-02-17T02:19:52.602Z,5.10
2019-02-17T02:22:19.663Z,5.23
2019-02-17T02:24:46.751Z,5.63
2019-02-17T02:27:13.809Z,5.23
2019-02-17T02:29:41.519Z,5.93
2019-02-17T02:32:09.627Z,5.70
2019-02-17T02:34:36.791Z,8.13
2019-02-17T02:37:03.930Z,5.13
2019-02-17T02:39:31.001Z,6.47
2019-02-17T02:41:58.091Z,5.33
2019-02-17T02:44:25.144Z,5.47
2019-02-17T02:46:52.440Z,6.23
2019-02-17T02:49:19.500Z,6.30
2019-02-17T02:51:46.589Z,5.77
2019-02-17T02:54:13.646Z,16.83
2019-02-17T02:56:40.900Z,6.13
2019-02-17T02:59:07.970Z,5.53
2019-02-17T03:01:35.047Z,7.43
2019-02-17T03:04:02.182Z,5.80
2019-02-17T03:06:29.273Z,5.50
2019-02-17T03:08:56.343Z,5.33
2019-02-17T03:11:23.405Z,5.60
2019-02-17T03:13:50.685Z,6.10
2019-02-17T03:16:17.735Z,5.70
2019-02-17T03:18:44.796Z,5.80
2019-02-17T03:21:11.887Z,5.27
2019-02-17T03:23:39.071Z,6.07
2019-02-17T03:26:06.139Z,5.70
2019-02-17T03:28:33.199Z,6.97
2019-02-17T03:31:00.295Z,6.60
2019-02-17T03:33:27.362Z,6.40
2019-02-17T03:35:54.622Z,5.57
2019-02-17T03:38:21.669Z,6.13
2019-02-17T03:40:48.728Z,6.30
2019-02-17T03:43:15.964Z,6.57
2019-02-17T03:45:43.217Z,7.57
2019-02-17T03:48:10.475Z,6.40
2019-02-17T03:50:37.529Z,6.10
2019-02-17T03:53:04.635Z,6.20
2019-02-17T03:55:31.731Z,6.10
2019-02-17T03:57:58.786Z,7.07
2019-02-17T04:00:25.865Z,7.10
2019-02-17T04:02:52.971Z,11.00
2019-02-17T04:05:20.027Z,6.23
2019-02-17T04:07:47.119Z,7.93
2019-02-17T04:10:14.226Z,6.10
2019-02-17T04:12:41.370Z,6.60
2019-02-17T04:15:08.614Z,6.00
2019-02-17T04:17:35.716Z,5.87
2019-02-17T04:20:02.849Z,7.80
2019-02-17T04:22:29.938Z,6.87
2019-02-17T04:24:57.210Z,6.13
2019-02-17T04:27:24.474Z,5.63
2019-02-17T04:29:51.603Z,6.47
2019-02-17T04:32:19.327Z,6.07
2019-02-17T04:34:46.420Z,6.37
2019-02-17T04:37:13.524Z,5.70
2019-02-17T04:39:40.587Z,6.87
2019-02-17T04:42:07.670Z,6.13
2019-02-17T04:44:34.729Z,6.20
2019-02-17T04:47:01.865Z,8.30
2019-02-17T04:49:29.104Z,6.00
2019-02-17T04:51:56.164Z,6.20
2019-02-17T04:54:23.417Z,6.80
2019-02-17T04:56:50.499Z,5.93
2019-02-17T04:59:17.586Z,7.00
2019-02-17T05:01:44.652Z,6.33
2019-02-17T05:04:11.823Z,5.83
2019-02-17T05:06:40.800Z,7.63
2019-02-17T05:09:07.665Z,6.33
2019-02-17T05:11:34.730Z,7.20
2019-02-17T05:14:01.812Z,6.87
2019-02-17T05:16:28.896Z,6.77
2019-02-17T05:18:55.983Z,6.50
2019-02-17T05:21:23.068Z,7.10
2019-02-17T05:23:50.128Z,6.40
2019-02-17T05:26:17.297Z,8.70
2019-02-17T05:28:44.391Z,8.17
2019-02-17T05:31:11.475Z,6.30
2019-02-17T05:33:38.541Z,6.53
2019-02-17T05:36:05.704Z,6.67
2019-02-17T05:38:32.817Z,6.77
2019-02-17T05:40:59.891Z,7.63
2019-02-17T05:43:26.987Z,8.70
2019-02-17T05:45:54.049Z,7.50
2019-02-17T05:48:21.138Z,7.30
2019-02-17T05:50:48.205Z,6.90
2019-02-17T05:53:15.315Z,6.13
2019-02-17T05:55:42.379Z,7.40
2019-02-17T05:58:09.443Z,6.27
2019-02-17T06:00:36.533Z,6.30
2019-02-17T06:03:03.626Z,7.00
2019-02-17T06:05:30.879Z,8.33
2019-02-17T06:07:57.947Z,7.20
2019-02-17T06:10:25.034Z,7.90
2019-02-17T06:12:52.092Z,9.20
2019-02-17T06:15:19.289Z,7.63
2019-02-17T06:17:46.351Z,6.20
2019-02-17T06:20:13.463Z,7.87
2019-02-17T06:22:40.610Z,6.77
2019-02-17T06:25:07.669Z,7.73
2019-02-17T06:27:34.913Z,7.80
2019-02-17T06:30:01.970Z,7.50
2019-02-17T06:32:29.071Z,6.57
2019-02-17T06:34:56.130Z,7.03
2019-02-17T06:37:23.323Z,6.10
2019-02-17T06:39:50.562Z,7.27
2019-02-17T06:42:17.622Z,5.83
2019-02-17T06:44:44.863Z,7.80
2019-02-17T06:47:12.476Z,7.77
2019-02-17T06:49:39.576Z,7.40
2019-02-17T06:52:06.669Z,7.00
2019-02-17T06:54:33.886Z,6.93
2019-02-17T06:57:00.946Z,6.50
2019-02-17T06:59:28.043Z,6.70
2019-02-17T07:01:55.111Z,6.40
2019-02-17T07:04:22.280Z,6.70
2019-02-17T07:06:49.342Z,7.97
2019-02-17T07:09:16.436Z,6.27
2019-02-17T07:11:43.581Z,9.43
2019-02-17T07:14:10.880Z,6.20
2019-02-17T07:16:37.966Z,13.63
2019-02-17T07:19:05.067Z,14.67
2019-02-17T07:21:32.131Z,9.50
2019-02-17T07:23:59.221Z,11.53
2019-02-17T07:26:26.285Z,7.97
2019-02-17T07:28:53.397Z,14.87
2019-02-17T07:31:22.536Z,17.93
2019-02-17T07:33:49.324Z,11.13
2019-02-17T07:36:16.452Z,11.97
2019-02-17T07:38:43.508Z,14.20
2019-02-17T07:41:10.613Z,13.03
2019-02-17T07:43:37.906Z,11.53
2019-02-17T07:46:04.973Z,12.67
2019-02-17T07:48:32.081Z,14.73
2019-02-17T07:50:59.141Z,10.97
2019-02-17T07:53:26.291Z,11.77
2019-02-17T07:55:53.571Z,9.93
2019-02-17T07:58:20.618Z,10.70
2019-02-17T08:00:47.729Z,15.93
2019-02-17T08:03:14.909Z,13.43
2019-02-17T08:05:41.979Z,13.50
2019-02-17T08:08:09.083Z,10.20
2019-02-17T08:10:36.148Z,10.20
2019-02-17T08:13:03.258Z,8.83
2019-02-17T08:15:30.311Z,9.80
2019-02-17T08:17:57.387Z,11.60
2019-02-17T08:20:36.328Z,11.37
2019-02-17T08:22:58.711Z,13.63
2019-02-17T08:25:25.766Z,13.97
2019-02-17T08:27:52.848Z,13.50
2019-02-17T08:30:20.003Z,11.10
2019-02-17T08:32:47.106Z,11.50
2019-02-17T08:35:14.167Z,11.80
2019-02-17T08:37:41.345Z,13.20
2019-02-17T08:40:08.601Z,13.43
2019-02-17T08:42:35.681Z,13.27
2019-02-17T08:45:02.747Z,12.37
2019-02-17T08:47:29.950Z,12.17
2019-02-17T08:49:57.051Z,14.13
2019-02-17T08:52:24.117Z,19.20
2019-02-17T08:54:51.296Z,15.07
2019-02-17T08:57:18.389Z,10.13
2019-02-17T08:59:45.453Z,12.23
2019-02-17T09:02:13.269Z,12.27
2019-02-17T09:04:40.522Z,16.67
2019-02-17T09:07:07.610Z,18.97
2019-02-17T09:09:34.683Z,12.43
2019-02-17T09:12:01.743Z,14.43
2019-02-17T09:14:28.909Z,11.27
2019-02-17T09:16:55.974Z,11.57
2019-02-17T09:19:23.092Z,13.63
2019-02-17T09:21:50.158Z,10.63
2019-02-17T09:24:17.216Z,10.07
2019-02-17T09:26:44.315Z,10.30
2019-02-17T09:29:11.412Z,12.57
2019-02-17T09:31:38.499Z,14.73
2019-02-17T09:34:05.558Z,12.23
2019-02-17T09:36:32.743Z,14.13
2019-02-17T09:38:59.805Z,14.50
2019-02-17T09:41:26.900Z,12.23
2019-02-17T09:43:53.966Z,8.70
2019-02-17T09:46:21.163Z,9.27
2019-02-17T09:48:48.541Z,9.47
2019-02-17T09:51:15.653Z,8.60
2019-02-17T09:53:42.730Z,9.37
2019-02-17T09:56:09.977Z,15.20
2019-02-17T09:58:37.041Z,13.33
2019-02-17T10:01:04.129Z,13.03
2019-02-17T10:03:31.315Z,14.73
2019-02-17T10:05:58.367Z,11.20
2019-02-17T10:08:25.460Z,8.23
2019-02-17T10:10:52.575Z,11.73
2019-02-17T10:13:19.690Z,8.53
2019-02-17T10:15:46.946Z,10.80
2019-02-17T10:18:14.180Z,9.90
2019-02-17T10:20:41.287Z,16.87
2019-02-17T10:23:08.895Z,18.10
2019-02-17T10:25:36.232Z,9.70
2019-02-17T10:28:03.522Z,10.57
2019-02-17T10:30:30.727Z,14.43
2019-02-17T10:32:57.874Z,17.70
2019-02-17T10:35:25.173Z,13.93
2019-02-17T10:37:52.263Z,6.27
2019-02-17T10:40:19.319Z,8.97
2019-02-17T10:42:46.425Z,10.33
2019-02-17T10:45:13.495Z,10.13
2019-02-17T10:47:40.567Z,7.10
2019-02-17T10:50:09.193Z,7.30
2019-02-17T10:52:37.009Z,8.60
2019-02-17T10:55:05.385Z,7.30
2019-02-17T10:57:34.806Z,6.20
2019-02-17T11:00:02.696Z,7.53
2019-02-17T11:02:29.754Z,7.90
2019-02-17T11:04:57.118Z,5.77
2019-02-17T11:07:24.225Z,8.10
2019-02-17T11:09:51.309Z,6.20
2019-02-17T11:12:18.399Z,7.83
2019-02-17T11:14:45.463Z,9.80
2019-02-17T11:17:12.902Z,5.30
2019-02-17T11:19:41.870Z,7.50
2019-02-17T11:22:09.387Z,7.07
2019-02-17T11:24:36.578Z,6.63
2019-02-17T11:27:03.646Z,5.00
2019-02-17T11:29:30.723Z,6.93
2019-02-17T11:31:57.813Z,5.67
2019-02-17T11:34:25.546Z,6.27
2019-02-17T11:36:53.028Z,5.30
2019-02-17T11:39:20.270Z,6.73
2019-02-17T11:41:47.359Z,10.33
2019-02-17T11:44:14.603Z,11.13
2019-02-17T11:46:42.502Z,5.37
2019-02-17T11:49:09.667Z,5.63
2019-02-17T11:51:37.350Z,4.13
2019-02-17T11:54:04.631Z,7.87
2019-02-17T11:56:31.785Z,5.00
2019-02-17T11:58:59.260Z,7.07
2019-02-17T12:01:26.368Z,9.67
2019-02-17T12:03:53.921Z,4.30
2019-02-17T12:06:21.272Z,4.13
2019-02-17T12:08:48.366Z,4.83
2019-02-17T12:11:15.774Z,5.50
2019-02-17T12:13:43.878Z,6.53
2019-02-17T12:16:11.152Z,3.80
2019-02-17T12:18:38.260Z,5.13
2019-02-17T12:21:05.379Z,5.87
2019-02-17T12:23:32.746Z,5.87
2019-02-17T12:25:59.801Z,5.83
2019-02-17T12:28:27.206Z,7.50
2019-02-17T12:30:54.305Z,5.00
2019-02-17T12:33:23.309Z,4.40
2019-02-17T12:35:51.049Z,5.13
2019-02-17T12:38:18.114Z,3.97
2019-02-17T12:40:45.178Z,4.13
2019-02-17T12:43:12.331Z,5.27
2019-02-17T12:45:39.422Z,5.00
2019-02-17T12:48:06.486Z,9.23
2019-02-17T12:50:33.578Z,13.40
2019-02-17T12:53:00.636Z,4.40
2019-02-17T12:55:27.776Z,8.73
2019-02-17T12:57:54.941Z,6.70
2019-02-17T13:00:22.060Z,7.43
2019-02-17T13:02:49.156Z,4.37
2019-02-17T13:05:16.245Z,5.53
2019-02-17T13:07:43.311Z,4.77
2019-02-17T13:10:10.394Z,7.70
2019-02-17T13:12:37.499Z,13.43
2019-02-17T13:15:04.571Z,7.00
2019-02-17T13:17:31.827Z,4.67
2019-02-17T13:19:58.880Z,3.70
2019-02-17T13:22:25.978Z,8.00
2019-02-17T13:24:53.026Z,3.77
2019-02-17T13:27:20.122Z,4.27
2019-02-17T13:29:47.194Z,9.40
2019-02-17T13:32:14.576Z,6.40
2019-02-17T13:34:41.664Z,4.43
2019-02-17T13:37:08.822Z,4.90
2019-02-17T13:39:35.910Z,4.67
2019-02-17T13:42:04.740Z,6.00
2019-02-17T13:44:31.867Z,5.13
2019-02-17T13:46:58.962Z,6.93
2019-02-17T13:49:26.016Z,3.30
2019-02-17T13:51:53.116Z,5.43
2019-02-17T13:54:20.183Z,5.83
2019-02-17T13:56:47.247Z,5.63
2019-02-17T13:59:14.343Z,3.73
2019-02-17T14:01:41.414Z,4.70
2019-02-17T14:04:08.504Z,5.13
2019-02-17T14:06:35.573Z,4.10
2019-02-17T14:09:02.651Z,3.20
2019-02-17T14:11:29.747Z,4.03
2019-02-17T14:13:56.991Z,4.43
2019-02-17T14:16:24.043Z,3.30
2019-02-17T14:18:51.142Z,3.50
2019-02-17T14:21:18.215Z,3.20
2019-02-17T14:23:45.262Z,3.80
2019-02-17T14:26:12.440Z,2.93
2019-02-17T14:28:39.494Z,5.37
2019-02-17T14:31:06.599Z,4.20
2019-02-17T14:33:33.701Z,3.20
2019-02-17T14:36:00.798Z,3.30
2019-02-17T14:38:27.889Z,3.60
2019-02-17T14:40:54.956Z,3.77
2019-02-17T14:43:22.192Z,3.77
2019-02-17T14:45:49.259Z,3.50
2019-02-17T14:48:17.282Z,3.47
2019-02-17T14:50:44.460Z,2.97
2019-02-17T14:53:11.527Z,3.80
2019-02-17T14:55:38.588Z,5.03
2019-02-17T14:58:05.967Z,8.47
2019-02-17T15:00:33.316Z,3.20
2019-02-17T15:03:00.422Z,2.60
2019-02-17T15:05:27.493Z,2.60
2019-02-17T15:07:54.581Z,3.47
2019-02-17T15:10:21.639Z,2.40
2019-02-17T15:12:48.726Z,2.30
2019-02-17T15:15:15.793Z,2.50
2019-02-17T15:17:42.874Z,2.70
2019-02-17T15:20:10.019Z,2.60
2019-02-17T15:22:37.121Z,3.20
2019-02-17T15:25:04.212Z,3.30
2019-02-17T15:27:31.280Z,2.83
2019-02-17T15:29:58.367Z,2.30
2019-02-17T15:32:26.244Z,2.73
2019-02-17T15:34:53.356Z,2.60
2019-02-17T15:37:20.442Z,2.83
2019-02-17T15:39:47.521Z,4.10
2019-02-17T15:42:14.639Z,2.60
2019-02-17T15:44:41.764Z,5.43
2019-02-17T15:47:08.847Z,3.27
2019-02-17T15:49:35.908Z,2.60
2019-02-17T15:52:03.005Z,4.70
2019-02-17T15:54:30.076Z,2.33
2019-02-17T15:56:57.170Z,2.20
2019-02-17T15:59:24.271Z,2.47
2019-02-17T16:01:51.328Z,2.00
2019-02-17T16:04:27.938Z,2.40
2019-02-17T16:06:47.327Z,2.20
2019-02-17T16:09:14.564Z,2.37
2019-02-17T16:11:41.657Z,2.40
2019-02-17T16:14:08.721Z,2.20
2019-02-17T16:16:35.937Z,2.00
2019-02-17T16:19:03.034Z,2.10
2019-02-17T16:21:30.124Z,2.23
2019-02-17T16:23:57.278Z,4.20
2019-02-17T16:26:24.390Z,9.13
2019-02-17T16:28:51.454Z,3.20
2019-02-17T16:31:18.531Z,2.40
2019-02-17T16:33:45.664Z,5.80
2019-02-17T16:36:12.720Z,2.10
2019-02-17T16:38:39.819Z,1.73
2019-02-17T16:41:06.917Z,1.80
2019-02-17T16:43:34.047Z,8.83
2019-02-17T16:46:03.744Z,1.97
2019-02-17T16:48:30.801Z,3.33
2019-02-17T16:50:57.890Z,1.97
2019-02-17T16:53:25.125Z,2.30
2019-02-17T16:55:52.197Z,2.50
2019-02-17T16:58:19.293Z,2.37
2019-02-17T17:00:46.377Z,6.60
2019-02-17T17:03:13.435Z,2.17
2019-02-17T17:05:40.583Z,2.00
2019-02-17T17:08:07.859Z,2.70
2019-02-17T17:10:34.975Z,6.40
2019-02-17T17:13:02.348Z,2.57
2019-02-17T17:15:29.947Z,3.23
2019-02-17T17:17:57.409Z,3.63
2019-02-17T17:20:24.650Z,6.13
2019-02-17T17:22:51.755Z,11.27
2019-02-17T17:25:18.805Z,26.37
2019-02-17T17:27:45.871Z,5.57
2019-02-17T17:30:13.223Z,2.40
2019-02-17T17:32:40.347Z,8.50
2019-02-17T17:35:07.413Z,4.63
2019-02-17T17:37:34.483Z,6.23
2019-02-17T17:40:01.813Z,7.10
2019-02-17T17:42:28.858Z,3.67
2019-02-17T17:44:56.027Z,7.70
2019-02-17T17:47:23.721Z,6.73
2019-02-17T17:49:50.803Z,8.30
2019-02-17T17:52:18.076Z,5.43
2019-02-17T17:54:45.218Z,3.97
2019-02-17T17:57:12.357Z,3.37
2019-02-17T17:59:39.646Z,4.80
2019-02-17T18:02:06.887Z,4.50
2019-02-17T18:04:33.984Z,4.10
2019-02-17T18:07:02.243Z,4.83
2019-02-17T18:09:29.333Z,5.00
2019-02-17T18:11:56.428Z,3.23
2019-02-17T18:14:24.006Z,6.73
2019-02-17T18:16:51.128Z,3.23
2019-02-17T18:19:18.209Z,4.83
2019-02-17T18:21:45.321Z,1.70
2019-02-17T18:24:12.781Z,8.87
2019-02-17T18:26:39.966Z,5.10
2019-02-17T18:29:07.019Z,3.17
2019-02-17T18:31:34.163Z,4.37
2019-02-17T18:34:01.315Z,3.30
2019-02-17T18:36:28.421Z,7.23
2019-02-17T18:38:55.486Z,3.53
2019-02-17T18:41:22.584Z,8.50
2019-02-17T18:43:49.718Z,2.67
2019-02-17T18:46:17.144Z,2.20
2019-02-17T18:48:44.295Z,3.27
2019-02-17T18:51:12.335Z,1.97
2019-02-17T18:53:39.547Z,2.83
2019-02-17T18:56:06.639Z,15.33
2019-02-17T18:58:33.794Z,2.03
2019-02-17T19:01:00.852Z,6.07
2019-02-17T19:03:28.197Z,1.20
2019-02-17T19:05:55.277Z,2.17
2019-02-17T19:08:22.339Z,1.60
2019-02-17T19:10:49.471Z,2.07
2019-02-17T19:13:16.826Z,1.63
2019-02-17T19:15:44.157Z,1.80
2019-02-17T19:18:11.251Z,2.10
2019-02-17T19:20:38.376Z,2.30
2019-02-17T19:23:05.537Z,4.93
2019-02-17T19:25:32.665Z,1.90
2019-02-17T19:27:59.789Z,1.80
2019-02-17T19:30:26.884Z,1.63
2019-02-17T19:32:54.050Z,2.67
2019-02-17T19:35:21.493Z,2.07
2019-02-17T19:37:48.726Z,1.53
2019-02-17T19:40:16.025Z,2.40
2019-02-17T19:42:43.152Z,8.10
2019-02-17T19:45:10.364Z,2.87
2019-02-17T19:47:37.467Z,2.90
2019-02-17T19:50:04.568Z,2.40
2019-02-17T19:52:32.567Z,3.37
2019-02-17T19:54:59.812Z,5.63
2019-02-17T19:57:26.961Z,4.80
2019-02-17T19:59:54.252Z,2.30
2019-02-17T20:02:22.233Z,2.17
2019-02-17T20:04:51.753Z,2.17
2019-02-17T20:07:18.838Z,6.33
2019-02-17T20:09:46.089Z,2.20
2019-02-17T20:12:13.209Z,2.40
2019-02-17T20:14:40.625Z,3.10
2019-02-17T20:17:07.779Z,3.00
2019-02-17T20:19:35.187Z,2.73
2019-02-17T20:22:02.428Z,6.80
2019-02-17T20:24:29.712Z,6.47
2019-02-17T20:26:56.905Z,3.00
2019-02-17T20:29:24.071Z,5.43
2019-02-17T20:31:51.207Z,4.83
2019-02-17T20:34:18.306Z,7.70
2019-02-17T20:36:45.492Z,2.90
2019-02-17T20:39:13.667Z,4.70
2019-02-17T20:41:40.733Z,2.50
2019-02-17T20:44:07.791Z,3.73
2019-02-17T20:46:37.090Z,3.33
2019-02-17T20:49:04.385Z,4.17
2019-02-17T20:51:33.798Z,4.63
2019-02-17T20:54:00.855Z,4.83
2019-02-17T20:56:27.956Z,5.70
2019-02-17T20:58:55.073Z,4.87
2019-02-17T21:01:22.142Z,6.13
2019-02-17T21:03:49.393Z,3.87
2019-02-17T21:06:16.459Z,3.20
2019-02-17T21:08:43.627Z,3.47
2019-02-17T21:11:10.799Z,3.60
2019-02-17T21:13:37.845Z,3.17
2019-02-17T21:16:05.043Z,2.60
2019-02-17T21:18:32.106Z,3.67
2019-02-17T21:20:59.279Z,10.33
2019-02-17T21:23:26.375Z,9.13
2019-02-17T21:25:53.573Z,4.37
2019-02-17T21:28:20.934Z,4.43
2019-02-17T21:30:50.469Z,4.47
2019-02-17T21:33:17.043Z,3.63
2019-02-17T21:35:44.216Z,3.13
2019-02-17T21:38:11.363Z,3.40
2019-02-17T21:40:38.522Z,5.80
2019-02-17T21:43:05.854Z,3.93
2019-02-17T21:45:32.984Z,3.83
2019-02-17T21:48:00.075Z,5.77
2019-02-17T21:50:27.158Z,5.60
2019-02-17T21:52:54.235Z,3.27
2019-02-17T21:55:21.483Z,5.80
2019-02-17T21:57:48.707Z,3.23
2019-02-17T22:00:15.832Z,5.30
2019-02-17T22:02:43.394Z,3.33
2019-02-17T22:05:10.474Z,4.67
2019-02-17T22:07:37.569Z,5.47
2019-02-17T22:10:04.647Z,4.10
2019-02-17T22:12:31.747Z,3.40
2019-02-17T22:14:58.796Z,3.50
2019-02-17T22:17:26.391Z,4.00
2019-02-17T22:19:53.447Z,5.17
2019-02-17T22:22:20.543Z,3.50
2019-02-17T22:24:47.610Z,4.37
2019-02-17T22:27:14.719Z,3.60
2019-02-17T22:29:41.832Z,4.43
2019-02-17T22:32:08.992Z,3.73
2019-02-17T22:34:36.042Z,4.17
2019-02-17T22:37:03.663Z,3.93
2019-02-17T22:39:30.807Z,5.77
2019-02-17T22:41:57.975Z,4.00
2019-02-17T22:44:25.906Z,4.23
2019-02-17T22:46:53.180Z,5.23
2019-02-17T22:49:20.232Z,4.30
2019-02-17T22:51:47.299Z,6.00
2019-02-17T22:54:14.410Z,4.70
2019-02-17T22:56:41.626Z,4.10
2019-02-17T22:59:08.713Z,4.70
2019-02-17T23:01:35.818Z,4.37
2019-02-17T23:04:02.937Z,5.40
2019-02-17T23:06:30.172Z,4.83
2019-02-17T23:08:57.265Z,4.87
2019-02-17T23:11:24.327Z,6.27
2019-02-17T23:13:51.513Z,4.63
2019-02-17T23:16:18.593Z,5.43
2019-02-17T23:18:45.683Z,4.73
2019-02-17T23:21:12.774Z,5.27
2019-02-17T23:23:39.838Z,5.57
2019-02-17T23:26:06.923Z,5.43
2019-02-17T23:28:34.017Z,5.90
2019-02-17T23:31:01.137Z,5.97
2019-02-17T23:33:28.312Z,6.97
2019-02-17T23:35:55.370Z,4.60
2019-02-17T23:38:24.026Z,5.43
2019-02-17T23:40:51.251Z,6.50
2019-02-17T23:43:22.930Z,7.47
2019-02-17T23:45:49.999Z,6.70
2019-02-17T23:48:17.088Z,5.50
2019-02-17T23:50:44.184Z,5.47
2019-02-17T23:53:11.237Z,6.90
2019-02-17T23:55:38.519Z,4.93
2019-02-17T23:58:05.673Z,5.10
